Date,TemperatureHighF,TemperatureAvgF,TemperatureLowF,DewpointHighF,DewpointAvgF,DewpointLowF,HumidityHigh,HumidityAvg,HumidityLow,PressureMaxIn,PressureMinIn,WindSpeedMaxMPH,WindSpeedAvgMPH,GustSpeedMaxMPH,PrecipitationSumIn
2013-1-1,59.6,52.2,44.2,58.1,50.8,40.9,96,95,88,30.20,29.95,5,1,11,2.78
2013-1-2,44.2,42.4,40.4,40.9,38.4,36.5,89,85,81,30.31,30.18,4,1,8,0.00
2013-1-3,51.9,43.3,36.4,37.8,35.8,33.6,93,76,52,30.45,30.29,6,1,11,0.00
2013-1-4,50.4,44.3,37.1,41.4,34.9,32.2,84,70,54,30.54,30.36,5,1,8,0.00
2013-1-5,47.7,43.1,41.2,46.1,40.4,35.6,96,90,69,30.43,30.26,5,1,7,0.67
2013-1-6,56.6,46.6,38.7,44.9,41.7,36.9,94,84,63,30.36,30.25,5,1,9,0.00
2013-1-7,57.0,44.5,31.0,42.2,37.7,29.6,96,79,51,30.37,30.17,8,2,12,0.00
2013-1-8,51.2,46.4,43.9,46.8,41.2,39.7,86,82,77,30.19,30.12,5,2,10,0.01
2013-1-9,64.8,64.1,63.4,63.9,63.0,62.5,97,96,96,30.15,30.06,9,5,13,3.56
2013-1-10,65.7,63.2,60.6,64.0,61.9,59.7,97,96,90,30.13,29.97,14,3,20,3.01
2013-1-11,71.2,62.0,49.2,65.2,57.1,48.4,98,85,63,30.08,29.94,7,3,11,0.01
2013-1-12,75.2,71.8,66.5,69.9,68.8,65.2,97,90,79,29.97,29.77,12,6,19,0.06
2013-1-13,72.6,54.4,43.5,68.6,51.8,39.8,96,91,77,30.18,29.72,14,4,21,1.12
2013-1-14,43.4,38.1,35.0,39.9,35.4,32.6,94,90,84,30.25,30.11,6,2,15,0.09
2013-1-15,35.9,34.5,33.5,33.9,33.0,32.2,95,94,90,30.15,30.02,4,2,7,0.57
2013-1-16,38.6,35.5,32.7,36.9,33.8,31.4,95,93,86,30.25,30.10,3,1,9,0.12
2013-1-17,57.1,41.7,30.9,39.0,33.9,28.1,96,76,47,30.50,30.22,4,1,13,0.01
2013-1-18,59.3,42.5,31.8,37.6,32.9,26.4,96,73,30,30.58,30.39,9,1,10,0.00
2013-1-19,59.3,43.9,30.5,46.0,37.9,29.2,96,81,54,30.40,30.24,6,1,8,0.00
2013-1-20,66.0,48.3,33.6,52.7,41.4,32.3,96,80,41,30.31,30.15,3,0,5,0.00
2013-1-21,67.7,49.7,38.5,53.3,43.2,36.1,96,79,57,30.26,30.16,5,1,9,0.00
2013-1-22,62.7,48.7,37.2,47.2,39.1,31.5,90,70,54,30.38,30.25,6,2,9,0.00
2013-1-23,73.7,55.9,40.9,55.4,48.6,39.3,96,79,46,30.38,30.24,5,2,12,0.00
2013-1-24,73.9,61.6,51.8,63.9,57.5,50.3,96,87,71,30.32,30.17,5,1,8,0.00